Time,TemperatureF,DewpointF,PressureIn,WindDirection,WindDirectionDegrees,WindSpeedMPH,WindSpeedGustMPH,Humidity,HourlyPrecipIn,Conditions,Clouds,dailyrainin,SolarRadiationWatts/m^2,SoftwareType,DateUTC
2013-09-10 00:01:00,54.0,47.0,-100.00,SW,217,2.0,4.0,76,0.00,,,0.00,0.000000,,2013-09-10 06:01:00,
2013-09-10 00:22:00,54.0,47.0,-100.00,SW,217,2.0,4.0,76,0.00,,,0.00,0.000000,,2013-09-10 06:22:00,
2013-09-10 00:32:00,54.0,47.0,-100.00,SW,217,2.0,4.0,76,0.00,,,0.00,0.000000,,2013-09-10 06:32:00,
2013-09-10 00:43:00,54.0,47.0,-100.00,SW,217,2.0,4.0,76,0.00,,,0.00,0.000000,,2013-09-10 06:43:00,
2013-09-10 00:52:00,54.0,47.0,-100.00,SW,217,2.0,4.0,76,0.00,,,0.00,0.000000,,2013-09-10 06:52:00,
2013-09-10 01:01:00,53.0,47.0,-100.00,SSW,213,1.0,4.0,81,0.00,,,0.00,0.000000,,2013-09-10 07:01:00,
2013-09-10 01:22:00,53.0,47.0,-100.00,SSW,213,1.0,4.0,81,0.00,,,0.00,0.000000,,2013-09-10 07:22:00,
2013-09-10 01:32:00,53.0,47.0,-100.00,SSW,213,1.0,4.0,81,0.00,,,0.00,0.000000,,2013-09-10 07:32:00,
2013-09-10 01:42:00,53.0,47.0,-100.00,SSW,213,1.0,4.0,81,0.00,,,0.00,0.000000,,2013-09-10 07:42:00,
2013-09-10 01:52:00,53.0,47.0,-100.00,SSW,213,1.0,4.0,81,0.00,,,0.00,0.000000,,2013-09-10 07:52:00,
2013-09-10 02:01:00,52.0,47.0,-100.00,SW,230,1.0,3.0,84,0.00,,,0.00,0.000000,,2013-09-10 08:01:00,
2013-09-10 02:42:00,52.0,47.0,-100.00,SW,230,1.0,3.0,84,0.00,,,0.00,0.000000,,2013-09-10 08:42:00,
2013-09-10 02:52:00,52.0,47.0,-100.00,SW,230,1.0,3.0,84,0.00,,,0.00,0.000000,,2013-09-10 08:52:00,
2013-09-10 03:01:00,50.0,46.0,-100.00,SSW,212,1.0,3.0,86,0.00,,,0.00,0.000000,,2013-09-10 09:01:00,
2013-09-10 03:22:00,50.0,46.0,-100.00,SSW,212,1.0,3.0,86,0.00,,,0.00,0.000000,,2013-09-10 09:22:00,
2013-09-10 03:33:00,50.0,46.0,-100.00,SSW,212,1.0,3.0,86,0.00,,,0.00,0.000000,,2013-09-10 09:33:00,
2013-09-10 03:43:00,50.0,46.0,-100.00,SSW,212,1.0,3.0,86,0.00,,,0.00,0.000000,,2013-09-10 09:43:00,
2013-09-10 03:54:00,50.0,46.0,-100.00,SSW,212,1.0,3.0,86,0.00,,,0.00,0.000000,,2013-09-10 09:54:00,
2013-09-10 04:01:00,51.0,48.0,-100.00,WSW,256,1.0,3.0,88,0.00,,,0.00,0.000000,,2013-09-10 10:01:00,
2013-09-10 04:24:00,51.0,48.0,-100.00,WSW,256,1.0,3.0,88,0.00,,,0.00,0.000000,,2013-09-10 10:24:00,
2013-09-10 04:33:00,51.0,48.0,-100.00,WSW,256,1.0,3.0,88,0.00,,,0.00,0.000000,,2013-09-10 10:33:00,
2013-09-10 04:43:00,51.0,48.0,-100.00,WSW,256,1.0,3.0,88,0.00,,,0.00,0.000000,,2013-09-10 10:43:00,
2013-09-10 04:53:00,51.0,48.0,-100.00,WSW,256,1.0,3.0,88,0.00,,,0.00,0.000000,,2013-09-10 10:53:00,
2013-09-10 08:01:00,49.0,47.0,-100.00,SW,224,0.0,3.0,94,-99.99,,,0.00,33.000000,,2013-09-10 14:01:00,
2013-09-10 08:22:00,49.0,47.0,-100.00,SW,224,0.0,3.0,94,-99.99,,,0.00,33.000000,,2013-09-10 14:22:00,
2013-09-10 08:32:00,49.0,47.0,-100.00,SW,224,0.0,3.0,94,-99.99,,,0.00,33.000000,,2013-09-10 14:32:00,
2013-09-10 08:42:00,49.0,47.0,-100.00,SW,224,0.0,3.0,94,-99.99,,,0.00,33.000000,,2013-09-10 14:42:00,
2013-09-10 08:52:00,49.0,47.0,-100.00,SW,224,0.0,3.0,94,-99.99,,,0.00,33.000000,,2013-09-10 14:52:00,
2013-09-10 09:01:00,57.0,51.0,-100.00,NNE,30,3.0,4.0,81,0.00,,,-99.99,143.000000,,2013-09-10 15:01:00,
2013-09-10 09:23:00,57.0,51.0,-100.00,NNE,30,3.0,4.0,81,0.00,,,-99.99,143.000000,,2013-09-10 15:23:00,
2013-09-10 09:34:00,57.0,51.0,-100.00,NNE,30,3.0,4.0,81,0.00,,,-99.99,143.000000,,2013-09-10 15:34:00,
2013-09-10 09:43:00,57.0,51.0,-100.00,NNE,30,3.0,4.0,81,0.00,,,-99.99,143.000000,,2013-09-10 15:43:00,
2013-09-10 09:54:00,57.0,51.0,-100.00,NNE,30,3.0,4.0,81,0.00,,,-99.99,143.000000,,2013-09-10 15:54:00,
2013-09-10 10:01:00,62.0,49.0,-100.00,South,169,3.0,5.0,62,0.00,,,0.00,396.000000,,2013-09-10 16:01:00,
2013-09-10 10:43:00,62.0,49.0,-100.00,South,169,3.0,5.0,62,0.00,,,0.00,396.000000,,2013-09-10 16:43:00,
2013-09-10 10:53:00,62.0,49.0,-100.00,South,169,3.0,5.0,62,0.00,,,0.00,396.000000,,2013-09-10 16:53:00,
2013-09-10 11:01:00,68.0,50.0,-100.00,ESE,107,3.0,6.0,52,0.00,,,0.00,587.000000,,2013-09-10 17:01:00,
2013-09-10 11:43:00,68.0,50.0,-100.00,ESE,107,3.0,6.0,52,0.00,,,0.00,587.000000,,2013-09-10 17:43:00,
2013-09-10 11:52:00,68.0,50.0,-100.00,ESE,107,3.0,6.0,52,0.00,,,0.00,587.000000,,2013-09-10 17:52:00,
2013-09-10 12:01:00,72.0,48.0,-100.00,East,100,3.0,6.0,43,0.00,,,0.00,732.000000,,2013-09-10 18:01:00,
2013-09-10 12:22:00,72.0,48.0,-100.00,East,100,3.0,6.0,43,0.00,,,0.00,732.000000,,2013-09-10 18:22:00,
2013-09-10 12:32:00,72.0,48.0,-100.00,East,100,3.0,6.0,43,0.00,,,0.00,732.000000,,2013-09-10 18:32:00,
2013-09-10 12:43:00,72.0,48.0,-100.00,East,100,3.0,6.0,43,0.00,,,0.00,732.000000,,2013-09-10 18:43:00,
2013-09-10 12:52:00,72.0,48.0,-100.00,East,100,3.0,6.0,43,0.00,,,0.00,732.000000,,2013-09-10 18:52:00,
2013-09-10 13:01:00,77.0,51.0,-100.00,NE,39,3.0,7.0,40,0.00,,,0.00,827.000000,,2013-09-10 19:01:00,
2013-09-10 13:42:00,77.0,51.0,-100.00,NE,39,3.0,7.0,40,0.00,,,0.00,827.000000,,2013-09-10 19:42:00,
2013-09-10 13:52:00,77.0,51.0,-100.00,NE,39,3.0,7.0,40,0.00,,,0.00,827.000000,,2013-09-10 19:52:00,
2013-09-10 14:01:00,80.0,51.0,-100.00,ENE,75,4.0,7.0,36,0.00,,,0.00,864.000000,,2013-09-10 20:01:00,
2013-09-10 14:22:00,80.0,51.0,-100.00,ENE,75,4.0,7.0,36,0.00,,,0.00,864.000000,,2013-09-10 20:22:00,
2013-09-10 14:33:00,80.0,51.0,-100.00,ENE,75,4.0,7.0,36,0.00,,,0.00,864.000000,,2013-09-10 20:33:00,
2013-09-10 14:42:00,80.0,51.0,-100.00,ENE,75,4.0,7.0,36,0.00,,,0.00,864.000000,,2013-09-10 20:42:00,
2013-09-10 14:52:00,80.0,51.0,-100.00,ENE,75,4.0,7.0,36,0.00,,,0.00,864.000000,,2013-09-10 20:52:00,
2013-09-10 15:01:00,83.0,47.0,-100.00,North,8,3.0,7.0,29,0.00,,,0.00,838.000000,,2013-09-10 21:01:00,
2013-09-10 15:44:00,83.0,47.0,-100.00,North,8,3.0,7.0,29,0.00,,,0.00,838.000000,,2013-09-10 21:44:00,
2013-09-10 15:54:00,83.0,47.0,-100.00,North,8,3.0,7.0,29,0.00,,,0.00,838.000000,,2013-09-10 21:54:00,
2013-09-10 16:01:00,85.0,45.0,-100.00,NE,42,4.0,9.0,25,0.00,,,0.00,749.000000,,2013-09-10 22:01:00,
2013-09-10 16:42:00,85.0,45.0,-100.00,NE,42,4.0,9.0,25,0.00,,,0.00,749.000000,,2013-09-10 22:42:00,
2013-09-10 16:54:00,85.0,45.0,-100.00,NE,42,4.0,9.0,25,0.00,,,0.00,749.000000,,2013-09-10 22:54:00,
2013-09-10 17:01:00,85.0,42.0,-100.00,NNE,13,4.0,8.0,22,0.00,,,0.00,613.000000,,2013-09-10 23:01:00,
2013-09-10 17:42:00,85.0,42.0,-100.00,NNE,13,4.0,8.0,22,0.00,,,0.00,613.000000,,2013-09-10 23:42:00,
2013-09-10 17:53:00,85.0,42.0,-100.00,NNE,13,4.0,8.0,22,0.00,,,0.00,613.000000,,2013-09-10 23:53:00,
2013-09-10 18:01:00,81.0,40.0,-100.00,NNW,339,3.0,8.0,23,0.00,,,0.00,349.000000,,2013-09-11 00:01:00,
2013-09-10 18:22:00,81.0,40.0,-100.00,NNW,339,3.0,8.0,23,0.00,,,0.00,349.000000,,2013-09-11 00:22:00,
2013-09-10 18:32:00,81.0,40.0,-100.00,NNW,339,3.0,8.0,23,0.00,,,0.00,349.000000,,2013-09-11 00:32:00,
2013-09-10 18:42:00,81.0,40.0,-100.00,NNW,339,3.0,8.0,23,0.00,,,0.00,349.000000,,2013-09-11 00:42:00,
2013-09-10 18:52:00,81.0,40.0,-100.00,NNW,339,3.0,8.0,23,0.00,,,0.00,349.000000,,2013-09-11 00:52:00,
2013-09-10 19:01:00,74.0,43.0,-100.00,West,269,1.0,6.0,33,0.00,,,0.00,34.000000,,2013-09-11 01:01:00,
2013-09-10 19:42:00,74.0,43.0,-100.00,West,269,1.0,6.0,33,0.00,,,0.00,34.000000,,2013-09-11 01:42:00,
2013-09-10 19:53:00,74.0,43.0,-100.00,West,269,1.0,6.0,33,0.00,,,0.00,34.000000,,2013-09-11 01:53:00,
2013-09-10 20:01:00,72.0,43.0,-100.00,WSW,256,2.0,4.0,35,0.00,,,0.00,12.000000,,2013-09-11 02:01:00,
2013-09-10 20:22:00,72.0,43.0,-100.00,WSW,256,2.0,4.0,35,0.00,,,0.00,12.000000,,2013-09-11 02:22:00,
2013-09-10 20:32:00,72.0,43.0,-100.00,WSW,256,2.0,4.0,35,0.00,,,0.00,12.000000,,2013-09-11 02:32:00,
2013-09-10 20:43:00,72.0,43.0,-100.00,WSW,256,2.0,4.0,35,0.00,,,0.00,12.000000,,2013-09-11 02:43:00,
2013-09-10 20:52:00,72.0,43.0,-100.00,WSW,256,2.0,4.0,35,0.00,,,0.00,12.000000,,2013-09-11 02:52:00,
2013-09-10 21:01:00,70.0,43.0,-100.00,SW,230,2.0,7.0,38,0.00,,,0.00,1.000000,,2013-09-11 03:01:00,
2013-09-10 21:23:00,70.0,43.0,-100.00,SW,230,2.0,7.0,38,0.00,,,0.00,1.000000,,2013-09-11 03:23:00,
2013-09-10 21:34:00,70.0,43.0,-100.00,SW,230,2.0,7.0,38,0.00,,,0.00,1.000000,,2013-09-11 03:34:00,
2013-09-10 21:45:00,70.0,43.0,-100.00,SW,230,2.0,7.0,38,0.00,,,0.00,1.000000,,2013-09-11 03:45:00,
2013-09-10 21:54:00,70.0,43.0,-100.00,SW,230,2.0,7.0,38,0.00,,,0.00,1.000000,,2013-09-11 03:54:00,
2013-09-10 22:01:00,62.0,44.0,-100.00,SSW,208,1.0,4.0,51,0.00,,,0.00,0.000000,,2013-09-11 04:01:00,
2013-09-10 22:24:00,62.0,44.0,-100.00,SSW,208,1.0,4.0,51,0.00,,,0.00,0.000000,,2013-09-11 04:24:00,
2013-09-10 22:33:00,62.0,44.0,-100.00,SSW,208,1.0,4.0,51,0.00,,,0.00,0.000000,,2013-09-11 04:33:00,
2013-09-10 22:44:00,62.0,44.0,-100.00,SSW,208,1.0,4.0,51,0.00,,,0.00,0.000000,,2013-09-11 04:44:00,
2013-09-10 22:54:00,62.0,44.0,-100.00,SSW,208,1.0,4.0,51,0.00,,,0.00,0.000000,,2013-09-11 04:54:00,
2013-09-10 23:01:00,60.0,45.0,-100.00,SW,229,2.0,3.0,57,0.00,,,0.00,0.000000,,2013-09-11 05:01:00,
2013-09-10 23:23:00,60.0,45.0,-100.00,SW,229,2.0,3.0,57,0.00,,,0.00,0.000000,,2013-09-11 05:23:00,
2013-09-10 23:34:00,60.0,45.0,-100.00,SW,229,2.0,3.0,57,0.00,,,0.00,0.000000,,2013-09-11 05:34:00,
2013-09-10 23:43:00,60.0,45.0,-100.00,SW,229,2.0,3.0,57,0.00,,,0.00,0.000000,,2013-09-11 05:43:00,
2013-09-10 23:53:00,60.0,45.0,-100.00,SW,229,2.0,3.0,57,0.00,,,0.00,0.000000,,2013-09-11 05:53:00,